createdAt,value
2022-09-07T00:04:53.004Z,97800.28
2022-09-07T00:09:55.700Z,97792.03
2022-09-07T00:14:58.158Z,97791.03
2022-09-07T00:20:00.606Z,97785.25
2022-09-07T00:25:03.313Z,97780.03
2022-09-07T00:30:07.263Z,97774.00
2022-09-07T00:35:10.059Z,97755.91
2022-09-07T00:40:12.651Z,97750.13
2022-09-07T00:45:20.170Z,97737.28
2022-09-07T00:50:31.418Z,97729.00
2022-09-07T00:55:36.544Z,97726.75
2022-09-07T01:00:41.265Z,97716.16
2022-09-07T01:05:48.068Z,97722.66
2022-09-07T01:10:50.737Z,97705.59
2022-09-07T01:16:15.148Z,97709.38
2022-09-07T01:21:41.839Z,97702.59
2022-09-07T01:27:13.371Z,97704.34
2022-09-07T01:32:34.313Z,97717.66
2022-09-07T01:37:58.404Z,97705.59
2022-09-07T01:43:32.446Z,97722.22
2022-09-07T01:48:37.979Z,97732.25
2022-09-07T01:53:50.825Z,97732.75
2022-09-07T01:58:58.647Z,97734.72
2022-09-07T02:04:05.113Z,97727.41
2022-09-07T02:09:14.447Z,97736.97
2022-09-07T02:14:19.646Z,97734.69
2022-09-07T02:19:25.188Z,97739.22
2022-09-07T02:24:35.330Z,97750.53
2022-09-07T02:29:38.568Z,97750.28
2022-09-07T02:34:41.124Z,97749.06
2022-09-07T02:39:43.729Z,97746.78
2022-09-07T02:44:48.169Z,97774.53
2022-09-07T02:50:27.215Z,97812.38
2022-09-07T02:55:57.661Z,97813.28
2022-09-07T03:01:05.039Z,97803.03
2022-09-07T03:06:38.474Z,97821.75
2022-09-07T03:11:40.911Z,97812.81
2022-09-07T03:16:43.912Z,97813.78
2022-09-07T03:21:46.711Z,97815.78
2022-09-07T03:26:49.450Z,97818.81
2022-09-07T03:31:52.034Z,97804.94
2022-09-07T03:36:54.451Z,97801.69
2022-09-07T03:41:56.951Z,97814.25
2022-09-07T03:46:59.405Z,97802.72
2022-09-07T03:52:01.938Z,97814.53
2022-09-07T03:57:04.463Z,97815.13
2022-09-07T04:02:06.988Z,97826.13
2022-09-07T04:07:10.038Z,97828.88
2022-09-07T04:12:12.488Z,97833.66
2022-09-07T04:17:15.011Z,97822.00
2022-09-07T04:22:17.477Z,97829.22
2022-09-07T04:27:19.899Z,97830.13
2022-09-07T04:32:22.396Z,97824.06
2022-09-07T04:37:24.833Z,97831.09
2022-09-07T04:42:27.287Z,97825.38
2022-09-07T04:47:30.847Z,97819.53
2022-09-07T04:52:33.939Z,97820.34
2022-09-07T04:57:36.486Z,97825.84
2022-09-07T05:02:39.125Z,97833.91
2022-09-07T05:07:41.720Z,97825.66
2022-09-07T05:12:44.253Z,97827.06
2022-09-07T05:17:46.730Z,97827.97
2022-09-07T05:22:49.332Z,97822.91
2022-09-07T05:27:52.363Z,97836.00
2022-09-07T05:32:54.837Z,97821.25
2022-09-07T05:37:57.311Z,97822.56
2022-09-07T05:43:00.026Z,97845.97
2022-09-07T05:48:02.714Z,97839.44
2022-09-07T05:53:05.282Z,97831.72
2022-09-07T05:58:07.707Z,97837.22
2022-09-07T06:03:10.451Z,97847.31
2022-09-07T06:08:13.378Z,97839.19
2022-09-07T06:13:15.825Z,97848.97
2022-09-07T06:18:18.436Z,97842.69
2022-09-07T06:23:20.929Z,97839.97
2022-09-07T06:28:29.233Z,97836.34
2022-09-07T06:33:32.312Z,97835.00
2022-09-07T06:38:37.738Z,97818.84
2022-09-07T06:43:45.515Z,97814.31
2022-09-07T06:48:52.231Z,97817.25
2022-09-07T06:59:20.041Z,97838.53
2022-09-07T07:04:22.715Z,97836.66
2022-09-07T07:09:25.277Z,97832.91
2022-09-07T07:14:29.941Z,97834.44
2022-09-07T07:19:33.485Z,97841.81
2022-09-07T07:24:35.918Z,97851.75
2022-09-07T07:29:38.381Z,97856.84
2022-09-07T07:34:40.794Z,97866.59
2022-09-07T07:50:34.136Z,97887.94
2022-09-07T07:55:45.415Z,97884.16
2022-09-07T08:00:54.710Z,97884.09
2022-09-07T08:06:11.772Z,97892.72
2022-09-07T08:11:23.627Z,97899.94
2022-09-07T08:16:26.156Z,97902.00
2022-09-07T08:21:28.582Z,97893.81
2022-09-07T08:26:31.235Z,97892.00
2022-09-07T08:31:33.740Z,97891.97
2022-09-07T08:36:36.103Z,97897.88
2022-09-07T08:42:00.487Z,97893.44
2022-09-07T08:47:12.598Z,97902.47
2022-09-07T08:52:23.617Z,97887.97
2022-09-07T08:57:31.006Z,97875.50
2022-09-07T09:02:40.303Z,97892.84
2022-09-07T09:07:59.224Z,97887.94
2022-09-07T09:13:16.506Z,97889.34
2022-09-07T09:18:40.420Z,97875.50
2022-09-07T09:23:44.183Z,97864.56
2022-09-07T09:28:46.663Z,97860.19
2022-09-07T09:34:11.301Z,97860.31
2022-09-07T09:39:29.071Z,97850.84
2022-09-07T09:44:38.359Z,97851.72
2022-09-07T09:49:41.159Z,97848.63
2022-09-07T09:54:48.694Z,97861.00
2022-09-07T10:00:07.045Z,97841.84
2022-09-07T10:05:28.982Z,97824.66
2022-09-07T10:10:31.592Z,97832.47
2022-09-07T10:15:41.255Z,97823.00
2022-09-07T10:20:43.986Z,97821.47
2022-09-07T10:25:47.578Z,97814.78
2022-09-07T10:30:59.274Z,97809.31
2022-09-07T10:36:10.706Z,97809.91
2022-09-07T10:41:13.474Z,97807.22
2022-09-07T10:52:02.011Z,97810.38
2022-09-07T10:57:16.162Z,97796.56
2022-09-07T11:02:29.929Z,97807.06
2022-09-07T11:07:38.251Z,97804.28
2022-09-07T11:12:44.717Z,97801.03
2022-09-07T11:17:55.173Z,97781.88
2022-09-07T11:23:24.030Z,97785.91
2022-09-07T11:28:35.946Z,97778.78
2022-09-07T11:39:35.516Z,97763.41
2022-09-07T11:44:46.764Z,97750.59
2022-09-07T11:49:58.514Z,97749.59
2022-09-07T11:55:10.713Z,97744.34
2022-09-07T12:00:20.188Z,97745.56
2022-09-07T12:05:50.080Z,97742.81
2022-09-07T12:11:27.918Z,97738.28
2022-09-07T12:16:49.146Z,97724.03
2022-09-07T12:21:54.269Z,97725.25
2022-09-07T12:26:59.119Z,97732.63
2022-09-07T12:37:39.333Z,97716.81
2022-09-07T12:42:42.087Z,97701.28
2022-09-07T12:47:56.237Z,97713.47
2022-09-07T12:53:13.810Z,97700.34
2022-09-07T12:58:39.786Z,97713.25
2022-09-07T13:04:31.475Z,97698.81
2022-09-07T13:09:34.965Z,97704.38
2022-09-07T13:14:38.688Z,97695.78
2022-09-07T13:19:46.840Z,97689.28
2022-09-07T13:24:52.806Z,97677.59
2022-09-07T13:30:14.021Z,97677.44
2022-09-07T13:35:25.083Z,97673.16
2022-09-07T13:40:57.257Z,97661.22
2022-09-07T13:46:02.697Z,97653.25
2022-09-07T13:51:31.814Z,97653.56
2022-09-07T13:56:53.193Z,97652.88
2022-09-07T14:01:57.260Z,97642.53
2022-09-07T14:07:14.422Z,97647.47
2022-09-07T14:12:20.227Z,97633.41
2022-09-07T14:17:22.780Z,97640.66
2022-09-07T14:22:33.161Z,97640.78
2022-09-07T14:27:36.544Z,97633.59
2022-09-07T14:32:39.038Z,97626.72
2022-09-07T14:37:41.842Z,97632.88
2022-09-07T14:42:44.928Z,97632.63
2022-09-07T14:47:49.719Z,97640.75
2022-09-07T14:58:17.125Z,97612.38
2022-09-07T15:03:30.832Z,97625.72
2022-09-07T15:08:41.168Z,97617.97
2022-09-07T15:13:45.509Z,97604.13
2022-09-07T15:19:16.792Z,97604.84
2022-09-07T15:24:19.148Z,97609.50
2022-09-07T15:29:24.141Z,97608.66
2022-09-07T15:34:26.835Z,97605.88
2022-09-07T15:39:30.228Z,97600.97
2022-09-07T15:44:32.887Z,97608.41
2022-09-07T15:49:35.309Z,97615.19
2022-09-07T15:54:39.807Z,97607.34
2022-09-07T15:59:42.350Z,97603.19
2022-09-07T16:04:44.859Z,97597.22
2022-09-07T16:09:47.855Z,97578.56
2022-09-07T16:14:56.398Z,97565.63
2022-09-07T16:20:02.119Z,97579.38
2022-09-07T16:25:04.942Z,97569.41
2022-09-07T16:30:07.886Z,97577.16
2022-09-07T16:35:10.343Z,97572.97
2022-09-07T16:40:13.100Z,97585.94
2022-09-07T16:50:37.940Z,97581.88
2022-09-07T16:55:40.325Z,97574.81
2022-09-07T17:00:43.132Z,97592.84
2022-09-07T17:05:45.539Z,97593.06
2022-09-07T17:10:48.185Z,97587.03
2022-09-07T17:15:50.563Z,97566.56
2022-09-07T17:20:58.481Z,97570.94
2022-09-07T17:26:11.226Z,97572.19
2022-09-07T17:36:42.769Z,97583.69
2022-09-07T17:41:46.718Z,97590.88
2022-09-07T17:46:49.219Z,97603.09
2022-09-07T17:51:51.589Z,97619.47
2022-09-07T17:56:54.184Z,97611.53
2022-09-07T18:01:56.971Z,97617.38
2022-09-07T18:06:59.411Z,97617.50
2022-09-07T18:12:01.908Z,97638.91
2022-09-07T18:17:05.371Z,97639.44
2022-09-07T18:22:08.755Z,97607.31
2022-09-07T18:27:11.163Z,97594.13
2022-09-07T18:32:13.611Z,97598.22
2022-09-07T18:37:16.213Z,97584.75
2022-09-07T18:42:18.689Z,97600.59
2022-09-07T18:47:27.517Z,97630.91
2022-09-07T18:57:53.538Z,97630.50
2022-09-07T19:02:55.986Z,97623.69
2022-09-07T19:07:59.670Z,97620.81
2022-09-07T19:13:02.435Z,97608.28
2022-09-07T19:18:05.730Z,97617.19
2022-09-07T19:23:08.609Z,97625.44
2022-09-07T19:28:10.999Z,97631.22
2022-09-07T19:33:15.528Z,97633.38
2022-09-07T19:38:18.505Z,97632.94
2022-09-07T19:43:20.871Z,97616.88
2022-09-07T19:48:23.316Z,97608.09
2022-09-07T19:53:25.827Z,97614.94
2022-09-07T19:58:28.278Z,97610.03
2022-09-07T20:03:30.775Z,97603.09
2022-09-07T20:08:33.218Z,97589.31
2022-09-07T20:13:37.672Z,97587.50
2022-09-07T20:18:40.122Z,97584.50
2022-09-07T20:23:43.283Z,97563.50
2022-09-07T20:28:46.231Z,97563.09
2022-09-07T20:33:50.153Z,97548.72
2022-09-07T20:38:56.732Z,97547.34
2022-09-07T20:44:01.349Z,97535.66
2022-09-07T20:49:04.873Z,97539.50
2022-09-07T20:54:07.348Z,97531.53
2022-09-07T20:59:09.937Z,97536.38
2022-09-07T21:04:12.351Z,97544.63
2022-09-07T21:09:14.708Z,97541.00
2022-09-07T21:14:17.851Z,97539.84
2022-09-07T21:19:20.336Z,97548.47
2022-09-07T21:24:23.653Z,97556.00
2022-09-07T21:29:26.661Z,97564.66
2022-09-07T21:34:29.321Z,97563.53
2022-09-07T21:39:31.716Z,97556.09
2022-09-07T21:44:34.114Z,97553.06
2022-09-07T21:49:36.628Z,97553.78
2022-09-07T21:54:39.041Z,97564.03
2022-09-07T21:59:41.396Z,97562.78
2022-09-07T22:04:43.749Z,97549.94
2022-09-07T22:09:46.549Z,97526.09
2022-09-07T22:14:49.188Z,97518.56
2022-09-07T22:19:51.532Z,97515.97
2022-09-07T22:24:54.023Z,97506.88
2022-09-07T22:29:56.381Z,97501.88
2022-09-07T22:34:58.816Z,97491.16
2022-09-07T22:40:02.259Z,97491.44
2022-09-07T22:45:05.938Z,97483.81
2022-09-07T22:50:08.775Z,97479.78
2022-09-07T23:00:15.143Z,97454.63
2022-09-07T23:05:17.488Z,97467.44
2022-09-07T23:10:19.818Z,97463.63
2022-09-07T23:15:22.257Z,97461.53
2022-09-07T23:20:25.749Z,97456.06
2022-09-07T23:25:28.438Z,97442.78
2022-09-07T23:30:31.302Z,97437.00
2022-09-07T23:35:33.778Z,97428.19
2022-09-07T23:40:36.258Z,97421.66
2022-09-07T23:45:38.648Z,97412.53
2022-09-07T23:50:42.708Z,97408.66
2022-09-07T23:55:46.677Z,97413.50
